createdAt,value
2023-04-21T00:00:10.374Z,23.48
2023-04-21T00:02:39.803Z,23.48
2023-04-21T00:05:12.719Z,22.83
2023-04-21T00:07:41.056Z,22.38
2023-04-21T00:10:08.953Z,25.02
2023-04-21T00:12:36.348Z,21.90
2023-04-21T00:15:09.964Z,23.08
2023-04-21T00:17:36.848Z,21.08
2023-04-21T00:20:05.039Z,21.08
2023-04-21T00:22:31.785Z,21.02
2023-04-21T00:24:58.895Z,22.30
2023-04-21T00:27:26.212Z,20.15
2023-04-21T00:29:54.454Z,25.10
2023-04-21T00:32:23.508Z,22.25
2023-04-21T00:34:50.633Z,20.65
2023-04-21T00:37:17.436Z,22.33
2023-04-21T00:39:44.269Z,23.13
2023-04-21T00:42:11.091Z,22.00
2023-04-21T00:44:40.148Z,22.98
2023-04-21T00:47:07.258Z,22.63
2023-04-21T00:49:34.228Z,22.95
2023-04-21T00:52:03.419Z,23.48
2023-04-21T00:54:30.759Z,23.58
2023-04-21T00:57:02.742Z,22.92
2023-04-21T00:59:30.647Z,23.05
2023-04-21T01:01:57.572Z,22.52
2023-04-21T01:04:24.422Z,21.70
2023-04-21T01:06:51.627Z,25.45
2023-04-21T01:09:19.317Z,24.00
2023-04-21T01:12:02.263Z,23.17
2023-04-21T01:14:29.283Z,22.38
2023-04-21T01:16:57.716Z,21.33
2023-04-21T01:19:27.635Z,23.92
2023-04-21T01:21:57.701Z,23.23
2023-04-21T01:24:29.945Z,22.00
2023-04-21T01:26:58.148Z,23.20
2023-04-21T01:29:25.417Z,21.17
2023-04-21T01:31:52.402Z,21.58
2023-04-21T01:34:19.715Z,21.83
2023-04-21T01:36:46.998Z,23.27
2023-04-21T01:39:13.704Z,24.27
2023-04-21T01:41:43.013Z,21.00
2023-04-21T01:44:12.570Z,21.83
2023-04-21T01:46:39.302Z,21.45
2023-04-21T01:49:06.049Z,22.67
2023-04-21T01:51:32.793Z,22.73
2023-04-21T01:53:59.711Z,23.02
2023-04-21T01:56:26.650Z,22.52
2023-04-21T01:58:55.168Z,23.92
2023-04-21T02:01:23.932Z,22.38
2023-04-21T02:03:53.694Z,22.92
2023-04-21T02:06:20.728Z,21.30
2023-04-21T02:08:50.274Z,23.15
2023-04-21T02:11:21.417Z,23.48
2023-04-21T02:13:49.154Z,22.17
2023-04-21T02:16:16.424Z,23.08
2023-04-21T02:18:47.512Z,21.73
2023-04-21T02:21:16.133Z,22.20
2023-04-21T02:23:44.984Z,23.55
2023-04-21T02:26:11.952Z,21.02
2023-04-21T02:28:48.548Z,21.50
2023-04-21T02:31:20.100Z,22.92
2023-04-21T02:33:47.606Z,23.30
2023-04-21T02:36:17.513Z,21.58
2023-04-21T02:38:47.559Z,23.23
2023-04-21T02:41:14.353Z,23.00
2023-04-21T02:43:41.490Z,23.17
2023-04-21T02:46:08.818Z,20.00
2023-04-21T02:48:36.401Z,23.10
2023-04-21T02:51:06.761Z,23.08
2023-04-21T02:53:33.799Z,23.52
2023-04-21T02:56:13.121Z,23.48
2023-04-21T02:58:45.973Z,23.13
2023-04-21T03:01:12.840Z,19.73
2023-04-21T03:03:39.780Z,21.67
2023-04-21T03:06:08.460Z,21.33
2023-04-21T03:08:36.424Z,22.25
2023-04-21T03:11:03.302Z,22.58
2023-04-21T03:13:30.568Z,20.88
2023-04-21T03:15:58.577Z,21.33
2023-04-21T03:18:30.388Z,22.70
2023-04-21T03:21:03.546Z,22.63
2023-04-21T03:23:30.350Z,20.75
2023-04-21T03:26:02.876Z,21.88
2023-04-21T03:28:29.730Z,20.88
2023-04-21T03:30:58.855Z,23.15
2023-04-21T03:33:27.209Z,21.05
2023-04-21T03:35:53.916Z,22.10
2023-04-21T03:38:21.963Z,21.88
2023-04-21T03:40:53.395Z,21.35
2023-04-21T03:43:20.348Z,21.48
2023-04-21T03:45:48.294Z,23.23
2023-04-21T03:48:20.509Z,22.40
2023-04-21T03:50:48.821Z,23.07
2023-04-21T03:53:15.583Z,23.83
2023-04-21T03:55:46.474Z,22.50
2023-04-21T03:58:19.710Z,22.27
2023-04-21T04:00:49.088Z,21.70
2023-04-21T04:03:19.757Z,22.23
2023-04-21T04:05:51.811Z,24.60
2023-04-21T04:08:21.740Z,22.70
2023-04-21T04:16:21.069Z,24.20
2023-04-21T04:18:56.589Z,24.85
2023-04-21T04:21:26.839Z,23.02
2023-04-21T05:24:47.353Z,18.13
2023-04-21T08:08:48.901Z,7.95
2023-04-21T09:28:03.323Z,6.78
2023-04-21T09:30:30.151Z,6.47
2023-04-21T09:33:00.036Z,6.43
2023-04-21T09:35:44.798Z,6.43
2023-04-21T09:38:12.782Z,7.55
2023-04-21T09:40:40.458Z,6.72
2023-04-21T09:43:07.711Z,7.00
2023-04-21T09:45:40.307Z,9.77
2023-04-21T09:48:07.781Z,9.00
2023-04-21T09:51:15.378Z,9.20
2023-04-21T09:53:21.845Z,7.10
2023-04-21T09:55:50.251Z,7.47
2023-04-21T09:58:19.294Z,7.63
2023-04-21T10:00:46.247Z,7.28
2023-04-21T10:03:16.123Z,6.80
2023-04-21T10:05:43.370Z,6.55
2023-04-21T10:08:11.642Z,5.72
2023-04-21T10:10:39.755Z,6.03
2023-04-21T10:13:12.482Z,5.35
2023-04-21T10:15:40.729Z,4.75
2023-04-21T10:18:24.912Z,5.68
2023-04-21T10:20:55.750Z,5.43
2023-04-21T10:23:45.022Z,5.28
2023-04-21T10:26:19.318Z,6.18
2023-04-21T10:28:54.480Z,5.22
2023-04-21T10:31:27.094Z,5.40
2023-04-21T10:34:08.796Z,4.72
2023-04-21T10:36:59.083Z,4.88
2023-04-21T10:39:27.184Z,4.75
2023-04-21T10:41:58.972Z,4.40
2023-04-21T10:44:25.817Z,5.95
2023-04-21T10:46:55.793Z,4.95
2023-04-21T10:49:26.106Z,4.57
2023-04-21T10:52:01.013Z,4.65
2023-04-21T10:54:29.755Z,5.13
2023-04-21T10:56:57.388Z,4.55
2023-04-21T10:59:24.992Z,5.22
2023-04-21T11:01:55.232Z,4.45
2023-04-21T11:04:25.063Z,4.10
2023-04-21T11:10:35.634Z,5.47
2023-04-21T11:19:12.217Z,4.90
2023-04-21T11:21:42.152Z,4.80
2023-04-21T11:24:19.779Z,4.65
2023-04-21T11:29:36.418Z,4.63
2023-04-21T11:32:15.867Z,4.68
2023-04-21T11:37:46.263Z,4.72
2023-04-21T11:43:26.899Z,4.57
2023-04-21T13:17:43.224Z,4.35
2023-04-21T13:20:15.036Z,4.68
2023-04-21T20:12:41.864Z,9.23
2023-04-21T20:15:11.953Z,8.75
2023-04-21T20:17:39.138Z,10.38
2023-04-21T20:20:09.522Z,8.77
2023-04-21T20:22:38.925Z,9.05
2023-04-21T20:25:07.289Z,8.93
2023-04-21T20:27:34.140Z,9.18
2023-04-21T20:30:01.187Z,8.93
2023-04-21T20:32:28.005Z,8.73
2023-04-21T20:34:54.805Z,8.68
2023-04-21T20:37:23.112Z,8.68
2023-04-21T20:39:50.030Z,8.88
2023-04-21T20:42:19.359Z,8.45
2023-04-21T20:44:46.149Z,8.48
2023-04-21T20:47:14.841Z,8.57
2023-04-21T20:49:43.333Z,7.55
2023-04-21T20:52:14.470Z,7.55
2023-04-21T20:54:42.298Z,7.47
2023-04-21T20:57:10.311Z,8.07
2023-04-21T20:59:37.273Z,8.38
2023-04-21T21:02:05.330Z,7.47
2023-04-21T21:04:33.357Z,10.60
2023-04-21T21:07:01.408Z,12.50
2023-04-21T21:09:28.236Z,9.73
2023-04-21T21:11:55.454Z,9.10
2023-04-21T21:14:37.477Z,8.57
2023-04-21T21:17:07.320Z,6.97
2023-04-21T21:19:34.108Z,7.38
2023-04-21T21:22:02.563Z,7.43
2023-04-21T21:24:33.341Z,8.10
2023-04-21T21:27:03.492Z,7.05
2023-04-21T21:29:31.187Z,7.22
2023-04-21T21:31:58.091Z,8.10
2023-04-21T21:34:24.954Z,7.30
2023-04-21T21:36:52.864Z,6.75
2023-04-21T21:39:28.113Z,7.40
2023-04-21T21:41:59.529Z,6.60
2023-04-21T21:44:26.287Z,6.47
2023-04-21T21:46:53.385Z,6.30
2023-04-21T21:49:20.484Z,6.78
2023-04-21T21:51:50.898Z,7.50
2023-04-21T21:54:19.674Z,8.73
2023-04-21T21:56:48.038Z,8.32
2023-04-21T22:03:00.918Z,8.00
2023-04-21T22:05:30.400Z,8.68
2023-04-21T22:08:00.351Z,8.30
2023-04-21T22:10:30.750Z,8.80
2023-04-21T22:12:59.118Z,8.55
2023-04-21T22:15:27.257Z,8.10
2023-04-21T22:17:54.333Z,8.15
2023-04-21T22:20:26.206Z,7.60
2023-04-21T22:22:53.767Z,7.95
2023-04-21T22:25:26.877Z,7.90
2023-04-21T22:30:28.374Z,8.23
2023-04-21T22:32:55.330Z,8.63
2023-04-21T22:35:23.459Z,8.15
2023-04-21T22:37:52.136Z,8.70
2023-04-21T22:40:21.338Z,8.50
2023-04-21T22:42:50.372Z,7.95
2023-04-21T22:45:22.114Z,8.25
2023-04-21T22:47:50.135Z,8.18
2023-04-21T22:50:17.238Z,8.45
2023-04-21T22:52:44.074Z,8.52
2023-04-21T22:55:12.313Z,9.38
2023-04-21T22:57:39.654Z,7.70
2023-04-21T23:00:10.222Z,8.10
2023-04-21T23:02:40.985Z,7.72
2023-04-21T23:05:10.943Z,7.82
2023-04-21T23:07:38.325Z,7.82
2023-04-21T23:10:08.050Z,7.85
2023-04-21T23:12:35.207Z,9.18
2023-04-21T23:15:04.794Z,9.18
2023-04-21T23:17:31.968Z,8.52
2023-04-21T23:20:02.364Z,8.07
2023-04-21T23:22:30.922Z,8.40
2023-04-21T23:24:58.197Z,7.97
2023-04-21T23:27:25.148Z,7.95
2023-04-21T23:29:53.468Z,8.35
2023-04-21T23:32:20.782Z,8.13
2023-04-21T23:34:52.104Z,7.60
2023-04-21T23:37:19.011Z,7.63
2023-04-21T23:39:46.850Z,7.57
2023-04-21T23:42:14.108Z,8.23
2023-04-21T23:44:42.261Z,7.90
2023-04-21T23:47:10.251Z,8.07
2023-04-21T23:49:39.842Z,8.75
2023-04-21T23:52:11.563Z,8.23
2023-04-21T23:54:40.092Z,8.50
2023-04-21T23:57:09.237Z,9.07
2023-04-21T23:59:39.101Z,8.48
